Paragonah, Utah
Current Conditions -  °F | °C
As of 5:53 PM on Friday 24 Oct 2014 (Local Time) from KCDC Reporting Station
Clear Clear  
Wind Chill: 71°   Ceiling: Unl
Heat Index: 71°   Visibility: 10mi
Dew Point: 23°   Wind: 12mph
Humidity: 16%   Direction: 220°SW
Pressure: 30.18"   Gusts: NA
Location:  37.89°N, 112.78°W
Report Text: KCDC 242353Z AUTO 22010KT 10SM CLR 22/M05 A3018 RMK AO2 SLP173 T02171050 10244 20206 58007 TSNO
Loading
Personal Weather Stations






























Interactive Weather Map New forecast layout! Learn more

10-Day Weather Forecast

Advertisements
Track Severe Weather on mobile